createdAt,value
2024-05-09T00:00:54.854Z,9.87
2024-05-09T00:03:45.015Z,9.80
2024-05-09T00:06:16.748Z,9.73
2024-05-09T00:08:48.814Z,9.68
2024-05-09T00:11:23.204Z,9.62
2024-05-09T00:13:54.788Z,9.58
2024-05-09T00:16:26.080Z,9.54
2024-05-09T00:18:57.499Z,9.50
2024-05-09T00:21:27.469Z,9.47
2024-05-09T00:23:58.845Z,9.38
2024-05-09T00:26:30.367Z,9.33
2024-05-09T00:29:00.344Z,9.31
2024-05-09T00:31:31.667Z,9.26
2024-05-09T00:34:03.422Z,9.23
2024-05-09T00:36:34.969Z,9.20
2024-05-09T00:39:06.317Z,9.16
2024-05-09T00:41:37.729Z,9.14
2024-05-09T00:44:09.382Z,9.10
2024-05-09T00:46:39.310Z,9.07
2024-05-09T00:49:12.577Z,9.01
2024-05-09T00:51:44.649Z,8.98
2024-05-09T00:54:16.814Z,8.95
2024-05-09T00:56:49.491Z,8.92
2024-05-09T00:59:22.589Z,8.89
2024-05-09T01:01:54.575Z,8.86
2024-05-09T01:04:26.084Z,8.82
2024-05-09T01:07:32.743Z,8.77
2024-05-09T01:10:09.077Z,8.71
2024-05-09T01:12:43.369Z,8.66
2024-05-09T01:15:14.807Z,8.61
2024-05-09T01:17:47.143Z,8.62
2024-05-09T01:20:22.952Z,8.63
2024-05-09T01:23:00.864Z,8.61
2024-05-09T01:25:32.795Z,8.59
2024-05-09T01:28:04.395Z,8.58
2024-05-09T01:30:37.506Z,8.57
2024-05-09T01:33:11.779Z,8.56
2024-05-09T01:35:44.452Z,8.52
2024-05-09T01:38:17.261Z,8.45
2024-05-09T01:40:49.451Z,8.40
2024-05-09T01:43:20.778Z,8.32
2024-05-09T01:45:52.092Z,8.26
2024-05-09T01:48:23.543Z,8.20
2024-05-09T01:50:55.076Z,8.16
2024-05-09T01:53:26.480Z,8.12
2024-05-09T01:55:57.867Z,8.12
2024-05-09T01:58:29.916Z,8.11
2024-05-09T02:01:01.356Z,8.08
2024-05-09T02:03:32.883Z,8.02
2024-05-09T02:06:04.661Z,7.99
2024-05-09T02:08:34.768Z,7.95
2024-05-09T02:11:09.605Z,7.90
2024-05-09T02:13:41.920Z,7.85
2024-05-09T02:16:14.506Z,7.82
2024-05-09T02:18:45.973Z,7.79
2024-05-09T02:21:17.420Z,7.80
2024-05-09T02:23:47.585Z,7.77
2024-05-09T02:26:19.026Z,7.71
2024-05-09T02:28:50.506Z,7.68
2024-05-09T02:31:21.881Z,7.70
2024-05-09T02:33:54.072Z,7.70
2024-05-09T02:36:25.765Z,7.68
2024-05-09T02:38:57.130Z,7.67
2024-05-09T02:41:28.557Z,7.64
2024-05-09T02:43:59.940Z,7.60
2024-05-09T02:46:31.422Z,7.54
2024-05-09T02:49:01.568Z,7.49
2024-05-09T02:51:32.928Z,7.41
2024-05-09T02:54:04.335Z,7.35
2024-05-09T02:56:35.685Z,7.30
2024-05-09T02:59:07.042Z,7.26
2024-05-09T03:01:38.498Z,7.28
2024-05-09T03:04:09.970Z,7.28
2024-05-09T03:06:44.050Z,7.27
2024-05-09T03:09:15.331Z,7.27
2024-05-09T03:11:47.222Z,7.27
2024-05-09T03:14:20.172Z,7.27
2024-05-09T03:16:51.628Z,7.25
2024-05-09T03:19:23.150Z,7.24
2024-05-09T03:21:54.788Z,7.18
2024-05-09T03:24:26.104Z,7.13
2024-05-09T03:26:57.410Z,7.07
2024-05-09T03:29:28.838Z,7.08
2024-05-09T03:32:01.223Z,7.10
2024-05-09T03:34:32.802Z,7.13
2024-05-09T03:37:04.238Z,7.17
2024-05-09T03:39:35.690Z,7.22
2024-05-09T03:42:08.108Z,7.25
2024-05-09T03:44:39.465Z,7.29
2024-05-09T03:47:10.825Z,7.33
2024-05-09T03:49:42.150Z,7.37
2024-05-09T03:52:13.596Z,7.42
2024-05-09T03:54:48.364Z,7.47
2024-05-09T03:57:19.704Z,7.54
2024-05-09T03:59:51.007Z,7.64
2024-05-09T04:02:22.477Z,7.71
2024-05-09T04:04:54.011Z,7.77
2024-05-09T04:07:25.369Z,7.85
2024-05-09T04:09:56.681Z,7.91
2024-05-09T04:12:28.996Z,7.96
2024-05-09T04:15:00.480Z,8.02
2024-05-09T04:17:32.127Z,8.06
2024-05-09T04:20:05.127Z,8.11
2024-05-09T04:22:38.045Z,8.16
2024-05-09T04:25:09.797Z,8.21
2024-05-09T04:27:39.631Z,8.25
2024-05-09T04:30:18.800Z,8.28
2024-05-09T04:32:57.733Z,8.35
2024-05-09T04:35:29.381Z,8.42
2024-05-09T04:38:01.230Z,8.49
2024-05-09T04:40:35.678Z,8.63
2024-05-09T04:43:14.729Z,8.74
2024-05-09T04:45:46.187Z,8.84
2024-05-09T04:48:17.779Z,8.96
2024-05-09T04:50:49.526Z,9.06
2024-05-09T04:53:21.075Z,9.18
2024-05-09T04:55:52.674Z,9.27
2024-05-09T04:58:22.635Z,9.37
2024-05-09T05:00:54.209Z,9.44
2024-05-09T05:03:24.404Z,9.54
2024-05-09T05:05:56.554Z,9.60
2024-05-09T05:08:28.165Z,9.69
2024-05-09T05:10:59.599Z,9.78
2024-05-09T05:13:36.715Z,9.86
2024-05-09T05:16:10.362Z,9.95
2024-05-09T05:18:41.779Z,10.04
2024-05-09T05:21:13.502Z,10.13
2024-05-09T05:23:45.253Z,10.24
2024-05-09T05:26:20.425Z,10.33
2024-05-09T05:28:52.853Z,10.44
2024-05-09T05:31:24.192Z,10.55
2024-05-09T05:33:55.622Z,10.64
2024-05-09T05:36:27.005Z,10.74
2024-05-09T05:38:58.363Z,10.85
2024-05-09T05:41:29.805Z,10.95
2024-05-09T05:43:59.971Z,11.05
2024-05-09T05:46:31.335Z,11.13
2024-05-09T05:49:02.838Z,11.24
2024-05-09T05:51:32.690Z,11.35
2024-05-09T05:54:04.092Z,11.44
2024-05-09T05:56:35.504Z,11.55
2024-05-09T05:59:05.510Z,11.66
2024-05-09T06:01:36.891Z,11.76
2024-05-09T06:04:08.399Z,11.88
2024-05-09T06:06:39.839Z,11.99
2024-05-09T06:09:11.190Z,12.11
2024-05-09T06:11:43.493Z,12.23
2024-05-09T06:14:16.104Z,12.35
2024-05-09T06:16:47.692Z,12.47
2024-05-09T06:19:19.569Z,12.58
2024-05-09T06:21:51.125Z,12.69
2024-05-09T06:24:22.620Z,12.81
2024-05-09T06:26:52.422Z,12.92
2024-05-09T06:29:23.964Z,12.99
2024-05-09T06:31:57.760Z,13.10
2024-05-09T06:34:31.236Z,13.22
2024-05-09T06:37:02.802Z,13.34
2024-05-09T06:39:32.760Z,13.45
2024-05-09T06:42:04.259Z,13.54
2024-05-09T06:44:35.675Z,13.67
2024-05-09T06:47:05.741Z,13.80
2024-05-09T06:49:37.907Z,13.89
2024-05-09T06:52:11.701Z,14.01
2024-05-09T06:54:43.230Z,14.15
2024-05-09T06:57:14.605Z,14.27
2024-05-09T06:59:44.499Z,14.39
2024-05-09T07:02:15.954Z,14.47
2024-05-09T07:04:47.434Z,14.57
2024-05-09T07:07:18.811Z,14.69
2024-05-09T07:09:48.647Z,14.81
2024-05-09T07:12:20.064Z,14.91
2024-05-09T07:14:52.343Z,15.03
2024-05-09T07:17:23.920Z,15.14
2024-05-09T07:19:55.571Z,15.24
2024-05-09T07:22:27.965Z,15.35
2024-05-09T07:24:59.296Z,15.45
2024-05-09T07:27:29.147Z,15.55
2024-05-09T07:29:59.239Z,15.61
2024-05-09T07:32:30.680Z,15.68
2024-05-09T07:35:02.401Z,15.77
2024-05-09T07:37:33.798Z,15.88
2024-05-09T07:40:07.381Z,15.96
2024-05-09T07:42:38.992Z,16.02
2024-05-09T07:45:29.658Z,16.07
2024-05-09T07:52:32.654Z,16.18
2024-05-09T07:53:39.930Z,16.27
2024-05-09T07:56:18.113Z,16.35
2024-05-09T07:58:53.331Z,16.43
2024-05-09T08:01:27.003Z,16.49
2024-05-09T08:03:58.938Z,16.55
2024-05-09T08:06:30.571Z,16.63
2024-05-09T08:09:05.472Z,16.69
2024-05-09T08:11:40.232Z,16.76
2024-05-09T08:14:11.564Z,16.87
2024-05-09T08:16:43.321Z,16.98
2024-05-09T08:19:14.635Z,17.06
2024-05-09T08:21:46.120Z,17.15
2024-05-09T08:24:17.519Z,17.26
2024-05-09T08:26:48.953Z,17.31
2024-05-09T08:29:20.414Z,17.34
2024-05-09T08:31:55.744Z,17.37
2024-05-09T08:34:27.380Z,17.43
2024-05-09T08:37:03.743Z,17.50
2024-05-09T08:39:41.503Z,17.60
2024-05-09T08:42:18.192Z,17.70
2024-05-09T08:44:51.196Z,17.79
2024-05-09T08:47:22.798Z,17.90
2024-05-09T08:49:58.746Z,18.01
2024-05-09T08:52:30.271Z,18.13
2024-05-09T08:55:01.716Z,18.24
2024-05-09T08:57:34.115Z,18.34
2024-05-09T09:00:14.859Z,18.39
2024-05-09T09:02:53.040Z,18.42
2024-05-09T09:05:32.411Z,18.47
2024-05-09T09:08:09.035Z,18.54
2024-05-09T09:10:43.319Z,18.64
2024-05-09T09:13:14.843Z,18.75
2024-05-09T09:15:58.692Z,18.88
2024-05-09T09:18:33.518Z,18.97
2024-05-09T09:21:05.361Z,19.02
2024-05-09T09:23:36.738Z,19.03
2024-05-09T09:26:08.320Z,19.08
2024-05-09T09:28:41.484Z,19.14
2024-05-09T09:31:12.969Z,19.24
2024-05-09T09:33:45.735Z,19.30
2024-05-09T09:36:18.594Z,19.35
2024-05-09T09:38:52.013Z,19.42
2024-05-09T09:41:30.730Z,19.47
2024-05-09T09:44:04.449Z,19.53
2024-05-09T09:46:36.879Z,19.57
2024-05-09T09:49:10.775Z,19.57
2024-05-09T09:51:44.574Z,19.58
2024-05-09T09:54:16.313Z,19.58
2024-05-09T09:56:48.635Z,19.56
2024-05-09T09:59:20.122Z,19.57
2024-05-09T10:01:51.612Z,19.57
2024-05-09T10:04:24.911Z,19.60
2024-05-09T10:07:00.588Z,19.65
2024-05-09T10:09:34.438Z,19.76
2024-05-09T10:12:14.437Z,19.86
2024-05-09T10:14:51.134Z,19.86
2024-05-09T10:17:23.041Z,19.90
2024-05-09T10:20:14.832Z,19.96
2024-05-09T10:22:53.090Z,20.16
2024-05-09T10:25:25.038Z,20.30
2024-05-09T10:27:58.414Z,20.41
2024-05-09T10:30:36.089Z,20.62
2024-05-09T10:33:13.154Z,20.84
2024-05-09T10:35:53.840Z,21.06
2024-05-09T10:38:26.370Z,21.25
2024-05-09T10:41:00.817Z,21.44
2024-05-09T10:43:34.388Z,21.64
2024-05-09T10:46:07.688Z,21.81
2024-05-09T10:48:40.670Z,21.95
2024-05-09T10:51:12.347Z,22.08
2024-05-09T10:53:45.473Z,22.23
2024-05-09T10:56:17.699Z,22.37
2024-05-09T10:58:51.877Z,22.48
2024-05-09T11:01:23.468Z,22.50
2024-05-09T11:03:57.485Z,22.55
2024-05-09T11:06:30.157Z,22.65
2024-05-09T11:09:01.590Z,22.73
2024-05-09T11:11:33.609Z,22.82
2024-05-09T11:14:14.185Z,22.89
2024-05-09T11:16:45.569Z,22.94
2024-05-09T11:19:19.566Z,22.99
2024-05-09T11:21:54.933Z,23.07
2024-05-09T11:24:26.358Z,23.03
2024-05-09T11:26:58.409Z,23.00
2024-05-09T11:29:40.297Z,22.98
2024-05-09T11:32:14.816Z,23.01
2024-05-09T11:34:46.191Z,23.02
2024-05-09T11:37:17.740Z,22.98
2024-05-09T11:39:49.563Z,23.01
2024-05-09T11:42:22.378Z,23.15
2024-05-09T11:44:53.657Z,23.41
2024-05-09T11:47:25.225Z,23.62
2024-05-09T11:49:57.223Z,23.80
2024-05-09T11:52:28.744Z,24.04
2024-05-09T11:55:01.231Z,24.21
2024-05-09T11:57:32.868Z,24.23
2024-05-09T12:00:05.688Z,24.19
2024-05-09T12:02:38.845Z,24.13
2024-05-09T12:05:10.404Z,24.05
2024-05-09T12:07:43.347Z,23.91
2024-05-09T12:10:19.619Z,23.82
2024-05-09T12:12:56.426Z,23.75
2024-05-09T12:15:27.924Z,23.88
2024-05-09T12:18:02.719Z,24.08
2024-05-09T12:20:39.190Z,24.21
2024-05-09T12:23:12.087Z,24.20
2024-05-09T12:25:43.496Z,24.14
2024-05-09T12:28:15.647Z,24.06
2024-05-09T12:30:49.063Z,24.03
2024-05-09T12:33:21.938Z,24.09
2024-05-09T12:35:53.500Z,24.20
2024-05-09T12:38:24.869Z,24.60
2024-05-09T12:40:56.488Z,24.95
2024-05-09T12:43:28.015Z,25.25
2024-05-09T12:46:00.489Z,25.41
2024-05-09T12:48:32.119Z,25.45
2024-05-09T12:51:03.509Z,25.44
2024-05-09T12:53:34.785Z,25.42
2024-05-09T12:58:47.104Z,25.55
2024-05-09T13:01:18.567Z,25.55
2024-05-09T13:03:50.490Z,25.54
2024-05-09T13:06:22.117Z,25.52
2024-05-09T13:08:53.460Z,25.35
2024-05-09T13:11:24.803Z,25.19
2024-05-09T13:13:57.024Z,25.09
2024-05-09T13:16:28.446Z,24.95
2024-05-09T13:18:59.953Z,24.79
2024-05-09T13:21:31.383Z,24.70
2024-05-09T13:24:03.181Z,24.78
2024-05-09T13:26:34.704Z,24.94
2024-05-09T13:29:06.102Z,25.08
2024-05-09T13:31:37.517Z,25.16
2024-05-09T13:34:09.051Z,25.22
2024-05-09T13:36:41.419Z,25.25
2024-05-09T13:39:13.002Z,25.30
2024-05-09T13:41:44.401Z,25.33
2024-05-09T13:44:15.806Z,25.35
2024-05-09T13:46:47.228Z,25.26
2024-05-09T13:49:18.677Z,25.26
2024-05-09T13:51:50.155Z,25.34
2024-05-09T13:54:22.719Z,25.43
2024-05-09T13:56:54.650Z,25.54
2024-05-09T13:59:25.978Z,25.62
2024-05-09T14:01:57.391Z,25.63
2024-05-09T14:04:29.136Z,25.53
2024-05-09T14:07:00.704Z,25.50
2024-05-09T14:09:32.187Z,25.46
2024-05-09T14:12:03.521Z,25.42
2024-05-09T14:14:35.665Z,25.40
2024-05-09T14:17:07.469Z,25.34
2024-05-09T14:19:38.894Z,25.29
2024-05-09T14:22:10.257Z,25.23
2024-05-09T14:24:42.147Z,25.19
2024-05-09T14:27:13.592Z,25.13
2024-05-09T14:29:44.928Z,25.07
2024-05-09T14:32:16.600Z,24.96
2024-05-09T14:34:48.028Z,24.82
2024-05-09T14:37:19.592Z,24.67
2024-05-09T14:39:51.020Z,24.51
2024-05-09T14:42:22.692Z,24.36
2024-05-09T14:44:54.265Z,24.24
2024-05-09T14:47:26.299Z,24.03
2024-05-09T14:49:57.827Z,23.73
2024-05-09T14:52:29.163Z,23.57
2024-05-09T14:55:01.171Z,23.43
2024-05-09T14:57:32.916Z,23.29
2024-05-09T15:00:08.980Z,23.16
2024-05-09T15:02:43.023Z,23.09
2024-05-09T15:05:14.695Z,23.03
2024-05-09T15:07:46.967Z,22.95
2024-05-09T15:10:26.569Z,22.91
2024-05-09T15:13:05.842Z,22.89
2024-05-09T15:15:39.154Z,22.90
2024-05-09T15:18:11.158Z,22.85
2024-05-09T15:20:44.895Z,22.78
2024-05-09T15:23:16.440Z,22.73
2024-05-09T15:25:48.350Z,22.71
2024-05-09T15:28:19.877Z,22.68
2024-05-09T15:30:51.412Z,22.66
2024-05-09T15:33:22.834Z,22.65
2024-05-09T15:35:54.577Z,22.58
2024-05-09T15:38:27.471Z,22.50
2024-05-09T15:40:59.437Z,22.43
2024-05-09T15:43:31.227Z,22.35
2024-05-09T15:46:02.930Z,22.29
2024-05-09T15:48:34.390Z,22.24
2024-05-09T15:51:08.154Z,22.17
2024-05-09T15:53:39.513Z,22.08
2024-05-09T15:56:11.884Z,22.04
2024-05-09T15:58:43.666Z,22.01
2024-05-09T16:01:15.405Z,21.98
2024-05-09T16:03:47.004Z,21.96
2024-05-09T16:06:18.779Z,21.95
2024-05-09T16:08:50.158Z,21.93
2024-05-09T16:11:21.573Z,21.89
2024-05-09T16:13:52.940Z,21.85
2024-05-09T16:16:25.193Z,21.78
2024-05-09T16:18:56.786Z,21.70
2024-05-09T16:21:28.356Z,21.61
2024-05-09T16:24:01.383Z,21.52
2024-05-09T16:26:33.088Z,21.45
2024-05-09T16:29:04.573Z,21.38
2024-05-09T16:31:35.991Z,21.34
2024-05-09T16:34:07.462Z,21.30
2024-05-09T16:36:38.868Z,21.25
2024-05-09T16:39:10.199Z,21.20
2024-05-09T16:41:41.827Z,21.17
2024-05-09T16:44:13.244Z,21.15
2024-05-09T16:46:45.216Z,21.14
2024-05-09T16:49:17.043Z,21.10
2024-05-09T16:51:48.466Z,21.07
2024-05-09T16:54:19.772Z,21.04
2024-05-09T16:56:51.496Z,21.00
2024-05-09T16:59:22.935Z,20.97
2024-05-09T17:01:54.435Z,20.94
2024-05-09T17:04:26.234Z,20.88
2024-05-09T17:06:58.523Z,20.80
2024-05-09T17:09:30.000Z,20.72
2024-05-09T17:12:01.472Z,20.63
2024-05-09T17:14:33.233Z,20.59
2024-05-09T17:17:07.036Z,20.56
2024-05-09T17:19:40.579Z,20.50
2024-05-09T17:22:12.454Z,20.46
2024-05-09T17:24:44.111Z,20.41
2024-05-09T17:27:15.831Z,20.37
2024-05-09T17:29:47.502Z,20.31
2024-05-09T17:32:18.947Z,20.24
2024-05-09T17:34:50.294Z,20.15
2024-05-09T17:37:21.894Z,20.08
2024-05-09T17:39:55.248Z,20.00
2024-05-09T17:42:26.632Z,19.89
2024-05-09T17:44:57.953Z,19.76
2024-05-09T17:47:29.394Z,19.62
2024-05-09T17:50:00.912Z,19.48
2024-05-09T17:52:32.646Z,19.35
2024-05-09T17:55:04.131Z,19.20
2024-05-09T17:57:35.749Z,19.05
2024-05-09T18:00:11.823Z,18.90
2024-05-09T18:02:43.600Z,18.73
2024-05-09T18:05:15.347Z,18.57
2024-05-09T18:07:46.899Z,18.41
2024-05-09T18:10:25.437Z,18.23
2024-05-09T18:13:01.469Z,18.04
2024-05-09T18:15:33.294Z,17.87
2024-05-09T18:18:06.588Z,17.72
2024-05-09T18:20:43.640Z,17.55
2024-05-09T18:23:19.480Z,17.36
2024-05-09T18:25:54.496Z,17.20
2024-05-09T18:28:26.367Z,17.03
2024-05-09T18:30:57.815Z,16.87
2024-05-09T18:33:29.391Z,16.72
2024-05-09T18:36:02.020Z,16.57
2024-05-09T18:38:33.601Z,16.41
2024-05-09T18:41:05.157Z,16.26
2024-05-09T18:43:42.293Z,16.13
2024-05-09T18:46:17.092Z,15.98
2024-05-09T18:48:48.670Z,15.85
2024-05-09T18:51:21.100Z,15.72
2024-05-09T18:53:54.729Z,15.59
2024-05-09T18:56:26.830Z,15.47
2024-05-09T18:58:58.140Z,15.35
2024-05-09T19:01:29.689Z,15.23
2024-05-09T19:04:01.583Z,15.13
2024-05-09T19:06:33.337Z,15.02
2024-05-09T19:09:05.679Z,14.91
2024-05-09T19:11:39.864Z,14.81
2024-05-09T19:14:11.275Z,14.70
2024-05-09T19:16:44.214Z,14.57
2024-05-09T19:19:16.155Z,14.46
2024-05-09T19:21:47.850Z,14.36
2024-05-09T19:24:19.296Z,14.26
2024-05-09T19:26:50.753Z,14.18
2024-05-09T19:29:22.617Z,14.08
2024-05-09T19:31:54.041Z,13.98
2024-05-09T19:34:25.538Z,13.89
2024-05-09T19:36:57.117Z,13.80
2024-05-09T19:39:28.451Z,13.72
2024-05-09T19:41:58.274Z,13.64
2024-05-09T19:44:29.748Z,13.54
2024-05-09T19:47:01.162Z,13.46
2024-05-09T19:49:31.284Z,13.38
2024-05-09T19:52:03.001Z,13.27
2024-05-09T19:54:34.687Z,13.19
2024-05-09T19:57:06.670Z,13.10
2024-05-09T19:59:38.038Z,13.00
2024-05-09T20:02:09.697Z,12.93
2024-05-09T20:04:45.135Z,12.85
2024-05-09T20:07:17.102Z,12.77
2024-05-09T20:09:49.224Z,12.69
2024-05-09T20:12:21.059Z,12.61
2024-05-09T20:14:52.736Z,12.54
2024-05-09T20:17:22.661Z,12.47
2024-05-09T20:19:54.657Z,12.37
2024-05-09T20:22:26.167Z,12.30
2024-05-09T20:24:57.999Z,12.24
2024-05-09T20:27:30.333Z,12.18
2024-05-09T20:30:02.383Z,12.13
2024-05-09T20:32:34.343Z,12.08
2024-05-09T20:35:06.550Z,12.03
2024-05-09T20:37:37.861Z,11.97
2024-05-09T20:40:18.299Z,11.92
2024-05-09T20:42:56.496Z,11.87
2024-05-09T20:45:27.841Z,11.83
2024-05-09T20:47:59.310Z,11.78
2024-05-09T20:50:37.820Z,11.74
2024-05-09T20:53:14.553Z,11.70
2024-05-09T20:55:47.112Z,11.64
2024-05-09T20:58:17.066Z,11.61
2024-05-09T21:00:48.695Z,11.55
2024-05-09T21:03:20.679Z,11.50
2024-05-09T21:05:50.696Z,11.44
2024-05-09T21:08:23.257Z,11.37
2024-05-09T21:10:55.393Z,11.31
2024-05-09T21:13:27.181Z,11.27
2024-05-09T21:15:58.859Z,11.22
2024-05-09T21:18:30.280Z,11.17
2024-05-09T21:21:02.151Z,11.14
2024-05-09T21:23:34.454Z,11.09
2024-05-09T21:26:08.220Z,11.04
2024-05-09T21:28:39.683Z,10.99
2024-05-09T21:31:12.163Z,10.95
2024-05-09T21:33:43.772Z,10.91
2024-05-09T21:36:15.410Z,10.85
2024-05-09T21:38:46.712Z,10.80
2024-05-09T21:41:18.076Z,10.76
2024-05-09T21:43:50.613Z,10.72
2024-05-09T21:46:27.714Z,10.67
2024-05-09T21:48:59.200Z,10.63
2024-05-09T21:51:32.140Z,10.59
2024-05-09T21:54:03.603Z,10.53
2024-05-09T21:56:34.912Z,10.45
2024-05-09T21:59:06.645Z,10.41
2024-05-09T22:01:38.042Z,10.34
2024-05-09T22:04:09.513Z,10.29
2024-05-09T22:06:41.147Z,10.24
2024-05-09T22:09:12.613Z,10.17
2024-05-09T22:11:44.041Z,10.13
2024-05-09T22:14:15.354Z,10.08
2024-05-09T22:16:46.765Z,10.03
2024-05-09T22:19:18.750Z,10.00
2024-05-09T22:21:50.675Z,9.96
2024-05-09T22:24:22.113Z,9.94
2024-05-09T22:26:55.233Z,9.91
2024-05-09T22:29:26.592Z,9.89
2024-05-09T22:31:58.457Z,9.87
2024-05-09T22:34:29.946Z,9.84
2024-05-09T22:36:59.849Z,9.81
2024-05-09T22:39:31.566Z,9.77
2024-05-09T22:42:02.928Z,9.74
2024-05-09T22:44:32.937Z,9.70
2024-05-09T22:47:04.455Z,9.63
2024-05-09T22:49:34.458Z,9.59
2024-05-09T22:52:06.388Z,9.55
2024-05-09T22:54:37.733Z,9.53
2024-05-09T22:57:09.105Z,9.51
2024-05-09T22:59:40.591Z,9.47
2024-05-09T23:02:10.571Z,9.42
2024-05-09T23:04:42.043Z,9.37
2024-05-09T23:07:12.198Z,9.34
2024-05-09T23:09:46.990Z,9.30
2024-05-09T23:12:18.435Z,9.29
2024-05-09T23:14:49.989Z,9.27
2024-05-09T23:17:21.628Z,9.25
2024-05-09T23:19:53.036Z,9.25
2024-05-09T23:22:25.137Z,9.23
2024-05-09T23:24:56.560Z,9.25
2024-05-09T23:27:28.379Z,9.26
2024-05-09T23:29:59.778Z,9.27
2024-05-09T23:32:31.495Z,9.27
2024-05-09T23:35:02.934Z,9.27
2024-05-09T23:37:33.070Z,9.27
2024-05-09T23:40:07.011Z,9.25
2024-05-09T23:42:42.874Z,9.24
2024-05-09T23:45:14.761Z,9.22
2024-05-09T23:47:46.423Z,9.21
2024-05-09T23:50:24.002Z,9.20
2024-05-09T23:53:02.805Z,9.19
2024-05-09T23:55:32.862Z,9.17
2024-05-09T23:58:04.977Z,9.13
